Time;durP1;ratioP1;P1;durP2;ratioP2;P2;SDS_P1;SDS_P2;PMS_P1;PMS_P2;Temp;Humidity;BMP_temperature;BMP_pressure;BME280_temperature;BME280_humidity;BME280_pressure;Samples;Min_cycle;Max_cycle;Signal;HPM_P1;HPM_P2
2023/10/05 00:01:27;;;;;;;3.10;0.63;;;;;;;-143.84;80.94;45085.25;5109576;28;20478;-58
2023/10/05 00:03:55;;;;;;;2.17;0.90;;;;;;;-143.84;80.90;45070.00;5109797;28;20567;-58
2023/10/05 00:06:25;;;;;;;1.00;0.70;;;;;;;-143.84;80.58;45089.06;5109781;28;20983;-58
2023/10/05 00:08:54;;;;;;;9.10;1.27;;;;;;;-143.84;80.87;45081.44;5110320;28;20466;-57
2023/10/05 00:11:29;;;;;;;1.30;1.00;;;;;;;-143.84;81.07;45062.41;5110281;28;20447;-57
2023/10/05 00:13:59;;;;;;;1.40;0.60;;;;;;;-143.84;81.10;45087.16;5109798;28;20482;-57
2023/10/05 00:16:36;;;;;;;1.87;1.00;;;;;;;-143.84;81.22;45075.72;5109817;28;20431;-57
2023/10/05 00:19:06;;;;;;;5.37;1.00;;;;;;;-143.84;81.10;45075.72;5109985;28;20844;-58
2023/10/05 00:21:35;;;;;;;1.00;0.83;;;;;;;-143.84;81.36;45075.72;5109531;27;21007;-58
2023/10/05 00:24:06;;;;;;;1.37;0.50;;;;;;;-143.84;81.68;45062.41;5109572;28;20979;-58
2023/10/05 00:26:34;;;;;;;1.20;1.00;;;;;;;-143.84;82.12;45089.06;5109605;28;20952;-57
2023/10/05 00:29:07;;;;;;;1.10;0.77;;;;;;;-143.84;82.68;45047.16;5109662;28;20447;-60
2023/10/05 00:31:38;;;;;;;1.00;0.90;;;;;;;-143.84;82.38;45102.38;5108400;28;20498;-60
2023/10/05 00:34:08;;;;;;;3.60;0.97;;;;;;;-143.84;82.61;45062.41;5109403;28;21017;-60
2023/10/05 00:36:39;;;;;;;0.83;0.63;;;;;;;-143.84;82.54;45077.63;5109461;28;20539;-60
2023/10/05 00:39:09;;;;;;;1.10;0.83;;;;;;;-143.84;82.60;45070.00;5109258;28;20434;-61
2023/10/05 00:41:36;;;;;;;3.43;1.27;;;;;;;-143.84;82.75;45071.91;5109461;28;20795;-61
2023/10/05 00:44:06;;;;;;;1.20;1.10;;;;;;;-143.84;82.56;45062.41;5109155;28;20439;-61
2023/10/05 00:46:34;;;;;;;1.60;1.07;;;;;;;-143.84;82.54;45073.81;5109143;28;20537;-60
2023/10/05 00:49:13;;;;;;;1.27;0.87;;;;;;;-143.84;82.98;45090.97;5109194;28;20447;-61
2023/10/05 00:51:44;;;;;;;0.80;0.50;;;;;;;-143.84;82.73;45081.44;5108897;28;20444;-60
2023/10/05 00:54:17;;;;;;;1.43;0.50;;;;;;;-143.84;82.70;45083.34;5109036;28;20485;-60
2023/10/05 00:56:45;;;;;;;0.90;0.60;;;;;;;-143.84;82.55;45100.47;5109361;28;20439;-61
2023/10/05 00:59:20;;;;;;;0.80;0.50;;;;;;;-143.84;82.55;45077.63;5109531;28;21012;-60
2023/10/05 01:02:03;;;;;;;2.30;1.37;;;;;;;-143.84;82.73;45068.13;5109030;28;20451;-60
2023/10/05 01:04:52;;;;;;;0.80;0.50;;;;;;;-143.84;82.78;45075.72;5108697;28;20431;-60
2023/10/05 01:07:27;;;;;;;0.80;0.50;;;;;;;-143.84;82.35;45081.44;5108926;28;20496;-60
2023/10/05 01:10:27;;;;;;;0.80;0.40;;;;;;;-143.84;82.53;45073.81;5108908;28;20447;-61
2023/10/05 01:12:50;;;;;;;2.10;0.90;;;;;;;-143.84;82.55;45073.81;5108995;28;21361;-62
2023/10/05 01:15:30;;;;;;;1.30;1.20;;;;;;;-143.84;82.83;45054.78;5109149;28;20435;-62
2023/10/05 01:17:59;;;;;;;2.10;1.43;;;;;;;-143.84;82.84;45094.78;5109260;28;20538;-62
2023/10/05 01:20:29;;;;;;;7.90;1.77;;;;;;;-143.84;82.88;45092.88;5108542;28;20443;-62
2023/10/05 01:22:57;;;;;;;1.47;0.70;;;;;;;-143.84;83.18;45077.63;5108815;28;20863;-62
2023/10/05 01:25:27;;;;;;;0.80;0.50;;;;;;;-143.84;83.16;45090.97;5108846;28;20795;-62
2023/10/05 01:27:55;;;;;;;3.63;1.60;;;;;;;-143.84;83.04;45087.16;5108988;28;20486;-62
2023/10/05 01:30:23;;;;;;;1.20;1.10;;;;;;;-143.84;82.92;45113.81;5108569;28;20572;-62
2023/10/05 01:32:50;;;;;;;1.20;1.00;;;;;;;-143.84;83.09;45092.88;5108917;28;20494;-60
2023/10/05 01:35:23;;;;;;;1.10;0.87;;;;;;;-143.84;83.21;45081.44;5108574;28;20439;-60
2023/10/05 01:37:53;;;;;;;1.20;0.90;;;;;;;-143.84;83.56;45100.47;5108732;28;20444;-60
2023/10/05 01:40:30;;;;;;;0.90;0.60;;;;;;;-143.84;83.90;45073.81;5108496;28;20446;-60
2023/10/05 01:42:59;;;;;;;0.90;0.53;;;;;;;-143.84;83.86;45073.81;5109898;28;20454;-60
2023/10/05 01:45:29;;;;;;;3.53;2.03;;;;;;;-143.84;83.96;45094.78;5112608;28;20542;-60
2023/10/05 01:48:01;;;;;;;1.53;1.43;;;;;;;-143.84;84.03;45115.72;5112459;28;20457;-60
2023/10/05 01:50:28;;;;;;;7.67;1.07;;;;;;;-143.84;83.93;45090.97;5112517;28;20454;-60
2023/10/05 01:53:06;;;;;;;1.27;0.70;;;;;;;-143.84;83.93;45087.16;5112524;28;20490;-60
2023/10/05 01:55:35;;;;;;;1.87;1.47;;;;;;;-143.84;83.94;45089.06;5112363;28;20473;-60
2023/10/05 01:58:05;;;;;;;1.13;0.90;;;;;;;-143.84;83.75;45079.53;5112215;28;20451;-60
2023/10/05 02:00:37;;;;;;;0.93;0.73;;;;;;;-143.84;83.81;45121.44;5111943;28;20450;-60
2023/10/05 02:03:07;;;;;;;0.80;0.57;;;;;;;-143.84;83.77;45071.91;5112009;28;20462;-60
2023/10/05 02:05:36;;;;;;;0.90;0.60;;;;;;;-143.84;83.52;45087.16;5112251;28;20439;-60
2023/10/05 02:08:03;;;;;;;0.80;0.57;;;;;;;-143.84;83.42;45110.00;5112033;28;20446;-60
2023/10/05 02:10:32;;;;;;;4.23;0.80;;;;;;;-143.84;83.04;45087.16;5112128;28;20446;-60
2023/10/05 02:13:01;;;;;;;1.03;0.93;;;;;;;-143.84;82.62;45125.22;5112028;28;20482;-60
2023/10/05 02:15:29;;;;;;;1.87;0.70;;;;;;;-143.84;82.63;45102.38;5111963;28;21037;-60
2023/10/05 02:17:59;;;;;;;2.80;1.57;;;;;;;-143.84;82.72;45090.97;5111882;28;20480;-60
2023/10/05 02:20:38;;;;;;;0.80;0.40;;;;;;;-143.84;82.81;45070.00;5112153;28;20438;-60
2023/10/05 02:23:24;;;;;;;2.00;0.97;;;;;;;-143.84;82.67;45098.56;5111745;28;20447;-60
2023/10/05 02:25:56;;;;;;;1.20;0.87;;;;;;;-143.84;82.18;45087.16;5111607;28;20443;-60
2023/10/05 02:28:25;;;;;;;1.37;0.50;;;;;;;-143.84;81.68;45077.63;5111602;27;20500;-60
2023/10/05 02:30:59;;;;;;;1.00;0.67;;;;;;;-143.84;81.58;45117.63;5111158;28;20517;-60
2023/10/05 02:33:28;;;;;;;3.43;1.03;;;;;;;-143.84;81.66;45090.97;5111814;28;20842;-60
2023/10/05 02:36:00;;;;;;;1.03;0.93;;;;;;;-143.84;81.67;45073.81;5111716;28;20484;-60
2023/10/05 02:38:32;;;;;;;1.93;1.50;;;;;;;-143.84;81.33;45110.00;5111581;28;20453;-60
2023/10/05 02:41:04;;;;;;;1.23;0.77;;;;;;;-143.84;81.22;45102.38;5111632;27;20439;-60
2023/10/05 02:43:38;;;;;;;3.90;1.07;;;;;;;-143.84;81.38;45106.19;5111580;28;20474;-60
2023/10/05 02:46:11;;;;;;;0.90;0.70;;;;;;;-143.84;81.27;45068.13;5111226;28;20430;-60
2023/10/05 02:48:41;;;;;;;2.00;1.10;;;;;;;-143.84;81.34;45100.47;5111377;28;21011;-60
2023/10/05 02:51:11;;;;;;;1.47;0.97;;;;;;;-143.84;81.37;45089.06;5111198;28;20445;-60
2023/10/05 02:53:43;;;;;;;1.27;0.90;;;;;;;-143.84;81.41;45094.78;5111239;28;20489;-60
2023/10/05 02:56:20;;;;;;;1.27;1.17;;;;;;;-143.84;81.34;45096.66;5110463;28;20447;-60
2023/10/05 02:58:50;;;;;;;1.20;0.60;;;;;;;-143.84;81.31;45090.97;5111126;27;20521;-60
2023/10/05 03:01:18;;;;;;;1.80;1.13;;;;;;;-143.84;81.45;45073.81;5110818;28;20826;-60
2023/10/05 03:03:47;;;;;;;0.90;0.60;;;;;;;-143.84;81.58;45077.63;5111006;27;20829;-60
2023/10/05 03:06:15;;;;;;;0.90;0.67;;;;;;;-143.84;81.70;45085.25;5111108;28;21374;-60
2023/10/05 03:08:43;;;;;;;5.23;1.43;;;;;;;-143.84;82.04;45110.00;5111160;27;20868;-60
2023/10/05 03:11:12;;;;;;;1.10;0.60;;;;;;;-143.84;82.26;45106.19;5110894;27;20442;-60
2023/10/05 03:13:39;;;;;;;0.90;0.60;;;;;;;-143.84;82.38;45092.88;5110809;28;20565;-60
2023/10/05 03:16:10;;;;;;;1.57;0.80;;;;;;;-143.84;82.35;45077.63;5110694;28;20427;-60
2023/10/05 03:18:42;;;;;;;1.00;0.77;;;;;;;-143.84;82.46;45071.91;5110864;28;20450;-60
2023/10/05 03:21:11;;;;;;;1.43;0.90;;;;;;;-143.84;82.45;45090.97;5110772;28;20446;-60
2023/10/05 03:23:40;;;;;;;1.07;0.90;;;;;;;-143.84;82.67;45089.06;5110807;28;20520;-60
2023/10/05 03:26:09;;;;;;;1.80;1.70;;;;;;;-143.84;82.70;45087.16;5110709;28;20439;-60
2023/10/05 03:28:36;;;;;;;1.20;0.73;;;;;;;-143.84;83.01;45089.06;5110602;28;20542;-59
2023/10/05 03:31:07;;;;;;;1.43;0.93;;;;;;;-143.84;82.97;45098.56;5110118;28;20505;-59
2023/10/05 03:33:35;;;;;;;1.23;0.93;;;;;;;-143.84;83.43;45087.16;5110062;28;20488;-59
2023/10/05 03:36:14;;;;;;;1.37;1.27;;;;;;;-143.84;83.57;45096.66;5108291;27;20443;-59
2023/10/05 03:38:42;;;;;;;8.63;1.60;;;;;;;-143.84;83.92;45092.88;5089180;28;20519;-60
2023/10/05 03:41:15;;;;;;;2.10;1.60;;;;;;;-143.84;84.43;45108.09;5089348;28;20941;-60
2023/10/05 03:43:45;;;;;;;1.50;1.33;;;;;;;-143.84;84.64;45092.88;5101587;28;20498;-60
2023/10/05 03:46:13;;;;;;;1.40;1.27;;;;;;;-143.84;84.69;45066.22;5109502;28;20995;-60
2023/10/05 03:48:42;;;;;;;1.00;0.80;;;;;;;-143.84;84.72;45129.03;5109231;28;20439;-60
2023/10/05 03:51:15;;;;;;;1.67;1.30;;;;;;;-143.84;84.75;45089.06;5109684;28;20465;-60
2023/10/05 03:53:48;;;;;;;0.90;0.80;;;;;;;-143.84;84.91;45083.34;5101895;28;20496;-60
2023/10/05 03:56:23;;;;;;;4.13;1.37;;;;;;;-143.84;85.08;45090.97;5107197;28;20442;-60
2023/10/05 03:58:52;;;;;;;1.50;1.00;;;;;;;-143.84;85.54;45087.16;5107223;27;20464;-60
2023/10/05 04:01:22;;;;;;;1.93;1.23;;;;;;;-143.84;85.70;45083.34;5110275;28;20507;-60
2023/10/05 04:03:50;;;;;;;2.07;1.20;;;;;;;-143.84;85.67;45098.56;5110129;28;21052;-60
2023/10/05 04:06:20;;;;;;;2.00;1.47;;;;;;;-143.84;85.82;45075.72;5109786;28;20470;-60
2023/10/05 04:08:49;;;;;;;4.40;2.67;;;;;;;-143.84;85.79;45102.38;5109280;28;20478;-60
2023/10/05 04:11:18;;;;;;;2.70;2.50;;;;;;;-143.84;85.81;45102.38;5109738;28;20529;-60
2023/10/05 04:13:49;;;;;;;4.07;2.63;;;;;;;-143.84;85.74;45096.66;5109448;28;20477;-60
2023/10/05 04:16:22;;;;;;;1.40;1.30;;;;;;;-143.84;85.73;45098.56;5109727;28;20450;-60
2023/10/05 04:18:51;;;;;;;1.30;1.20;;;;;;;-143.84;85.76;45104.28;5109844;28;20446;-60
2023/10/05 04:21:22;;;;;;;3.17;1.23;;;;;;;-143.84;85.55;45090.97;5109657;28;20441;-60
2023/10/05 04:23:50;;;;;;;1.43;1.33;;;;;;;-143.84;85.28;45108.09;5109453;28;20450;-60
2023/10/05 04:26:21;;;;;;;0.90;0.70;;;;;;;-143.84;84.97;45089.06;5109427;28;21030;-60
2023/10/05 04:28:57;;;;;;;1.07;0.80;;;;;;;-143.84;84.92;45106.19;5109167;28;20443;-60
2023/10/05 04:31:26;;;;;;;1.23;0.93;;;;;;;-143.84;84.75;45075.72;5109275;28;20572;-60
2023/10/05 04:33:55;;;;;;;1.73;1.53;;;;;;;-143.84;84.41;45096.66;5109202;28;20492;-60
2023/10/05 04:36:25;;;;;;;1.20;0.93;;;;;;;-143.84;84.30;45094.78;5109522;28;20446;-60
2023/10/05 04:38:54;;;;;;;1.80;1.23;;;;;;;-143.84;84.27;45085.25;5109281;28;20449;-60
2023/10/05 04:41:28;;;;;;;2.80;1.60;;;;;;;-143.84;83.63;45079.53;5108861;28;20967;-60
2023/10/05 04:43:56;;;;;;;3.10;1.40;;;;;;;-143.84;82.91;45096.66;5089055;28;20560;-60
2023/10/05 04:46:24;;;;;;;1.20;0.70;;;;;;;-143.84;80.93;45098.56;5088767;28;20448;-60
2023/10/05 04:49:07;;;;;;;1.50;1.40;;;;;;;-143.84;80.30;45098.56;5088666;28;20439;-60
2023/10/05 04:51:38;;;;;;;1.40;1.17;;;;;;;-143.84;78.68;45090.97;5088856;28;20471;-60
2023/10/05 04:54:06;;;;;;;0.90;0.60;;;;;;;-143.84;77.66;45104.28;5088463;28;20475;-60
2023/10/05 04:56:40;;;;;;;2.30;1.27;;;;;;;-143.84;76.89;45083.34;5088499;28;20980;-60
2023/10/05 04:59:24;;;;;;;2.23;0.80;;;;;;;-143.84;75.67;45096.66;5088500;28;20945;-60
2023/10/05 05:02:00;;;;;;;0.90;0.60;;;;;;;-143.84;75.31;45083.34;5088321;28;20456;-60
2023/10/05 05:04:41;;;;;;;1.63;1.17;;;;;;;-143.84;74.51;45079.53;5088423;28;20447;-60
2023/10/05 05:07:10;;;;;;;1.47;1.13;;;;;;;-143.84;74.37;45075.72;5088761;28;20467;-60
2023/10/05 05:09:39;;;;;;;1.40;0.90;;;;;;;-143.84;73.58;45094.78;5088818;28;20888;-60
2023/10/05 05:12:09;;;;;;;2.17;1.17;;;;;;;-143.84;72.15;45083.34;5088522;28;20483;-60
2023/10/05 05:14:41;;;;;;;1.10;0.73;;;;;;;-143.84;71.74;45100.47;5088429;28;20479;-60
2023/10/05 05:17:10;;;;;;;0.90;0.60;;;;;;;-143.84;70.86;45083.34;5089029;28;20544;-60
2023/10/05 05:19:39;;;;;;;1.40;0.67;;;;;;;-143.84;69.59;45045.25;5092555;28;20448;-60
2023/10/05 05:22:07;;;;;;;2.50;2.30;;;;;;;-143.84;68.40;45037.66;5092603;28;20447;-60
2023/10/05 05:24:37;;;;;;;1.37;0.83;;;;;;;-143.84;66.58;45081.44;5092648;28;20444;-60
2023/10/05 05:27:21;;;;;;;1.20;1.00;;;;;;;-143.84;65.52;45085.25;5092364;28;20448;-60
2023/10/05 05:29:51;;;;;;;1.87;1.23;;;;;;;-143.84;64.77;45083.34;5092550;28;20500;-60
2023/10/05 05:32:19;;;;;;;0.80;0.47;;;;;;;-143.84;64.17;45066.22;5092246;28;20495;-60
2023/10/05 05:34:49;;;;;;;2.60;1.47;;;;;;;-143.84;63.41;45068.13;5092386;28;20562;-60
2023/10/05 05:37:26;;;;;;;1.13;1.03;;;;;;;-143.84;61.81;45087.16;5092052;28;20439;-60
2023/10/05 05:39:54;;;;;;;1.93;1.00;;;;;;;-143.84;60.50;45070.00;5092540;28;20454;-59
2023/10/05 05:42:25;;;;;;;3.20;1.23;;;;;;;-143.84;58.86;45056.69;5092379;28;20444;-60
2023/10/05 05:44:53;;;;;;;1.37;1.23;;;;;;;-143.84;57.70;45064.31;5092426;28;20448;-60
2023/10/05 05:47:20;;;;;;;2.00;1.30;;;;;;;-143.84;57.05;45062.41;5092232;28;20489;-60
2023/10/05 05:49:48;;;;;;;1.30;1.17;;;;;;;-143.84;55.42;45043.34;5092200;28;20973;-60
2023/10/05 05:52:17;;;;;;;3.63;1.30;;;;;;;-143.84;54.46;45050.97;5092200;28;20448;-60
2023/10/05 05:54:46;;;;;;;2.10;1.17;;;;;;;-143.84;54.24;45039.53;5091808;28;20491;-60
2023/10/05 05:57:19;;;;;;;1.37;1.27;;;;;;;-143.84;52.44;45041.44;5092098;28;20477;-60
2023/10/05 05:59:46;;;;;;;1.83;1.37;;;;;;;-143.84;52.34;45049.06;5092219;28;20544;-60
2023/10/05 06:02:13;;;;;;;1.47;1.37;;;;;;;-143.84;51.57;45035.75;5091919;28;20443;-60
2023/10/05 06:04:42;;;;;;;0.90;0.60;;;;;;;-143.84;50.53;45050.97;5091903;28;20439;-60
2023/10/05 06:07:13;;;;;;;2.13;0.83;;;;;;;-143.84;50.39;45062.41;5091901;28;20477;-60
2023/10/05 06:09:42;;;;;;;2.33;1.20;;;;;;;-143.84;50.02;45062.41;5091704;28;20965;-61
2023/10/05 06:12:10;;;;;;;1.67;1.40;;;;;;;-143.84;49.37;45035.75;5110776;28;20447;-60
2023/10/05 06:14:40;;;;;;;6.53;1.60;;;;;;;-143.84;48.61;45028.13;5111917;28;20466;-60
2023/10/05 06:17:07;;;;;;;1.40;1.20;;;;;;;-143.84;48.74;45020.50;5112017;28;20933;-60
2023/10/05 06:19:35;;;;;;;1.73;1.33;;;;;;;-143.84;47.98;45041.44;5111693;28;20442;-60
2023/10/05 06:22:04;;;;;;;1.50;0.87;;;;;;;-143.84;47.46;45016.69;5111817;28;20446;-60
2023/10/05 06:24:31;;;;;;;1.00;0.63;;;;;;;-143.84;47.15;45039.53;5111600;28;20949;-60
2023/10/05 06:27:00;;;;;;;0.90;0.60;;;;;;;-143.84;47.63;45022.41;5111862;27;20443;-60
2023/10/05 06:29:27;;;;;;;1.70;1.00;;;;;;;-143.84;46.41;45005.28;5110320;28;20450;-60
2023/10/05 06:31:56;;;;;;;1.27;1.17;;;;;;;-143.84;46.29;45024.31;5111596;28;20470;-60
2023/10/05 06:34:23;;;;;;;3.53;1.47;;;;;;;-143.84;45.75;45016.69;5111540;28;20574;-60
2023/10/05 06:36:51;;;;;;;1.00;0.70;;;;;;;-143.84;46.06;45066.22;5111437;28;20451;-60
2023/10/05 06:39:19;;;;;;;2.27;1.00;;;;;;;-143.84;46.04;45020.50;5111460;28;21003;-60
2023/10/05 06:41:46;;;;;;;1.10;0.90;;;;;;;-143.84;45.19;45012.88;5111561;28;20454;-60
2023/10/05 06:44:13;;;;;;;1.87;0.83;;;;;;;-143.84;44.47;45014.78;5111369;28;20582;-61
2023/10/05 06:46:41;;;;;;;1.80;0.70;;;;;;;-143.84;44.75;45014.78;5111438;28;20442;-61
2023/10/05 06:49:10;;;;;;;1.73;1.63;;;;;;;-143.84;44.44;45030.03;5111627;28;20501;-61
2023/10/05 06:51:43;;;;;;;4.03;1.27;;;;;;;-143.84;45.22;45037.66;5111747;28;20446;-60
2023/10/05 06:54:11;;;;;;;1.23;0.70;;;;;;;-143.84;44.97;45031.94;5111053;28;21019;-60
2023/10/05 06:56:39;;;;;;;1.27;1.13;;;;;;;-143.84;43.62;45007.19;5111354;28;20474;-60
2023/10/05 06:59:07;;;;;;;1.53;0.73;;;;;;;-143.84;43.08;44988.13;5111142;28;20447;-60
2023/10/05 07:01:36;;;;;;;2.10;0.80;;;;;;;-143.84;43.10;44995.75;5111137;28;20459;-60
2023/10/05 07:04:07;;;;;;;1.00;0.70;;;;;;;-143.84;42.18;44999.56;5111015;28;20479;-60
2023/10/05 07:06:36;;;;;;;1.77;0.90;;;;;;;-143.84;41.67;44995.75;5111129;28;20690;-60
2023/10/05 07:09:04;;;;;;;5.40;1.17;;;;;;;-143.84;41.77;44978.63;5110799;28;20447;-60
2023/10/05 07:11:31;;;;;;;1.17;0.70;;;;;;;-143.84;41.68;44997.66;5110910;28;20447;-60
2023/10/05 07:13:59;;;;;;;2.60;1.27;;;;;;;-143.84;43.28;45016.69;5110688;28;20476;-60
2023/10/05 07:26:33;;;;;;;1.50;1.13;;;;;;;-143.84;45.43;45020.50;5110925;28;20506;-57
2023/10/05 07:29:01;;;;;;;1.87;1.70;;;;;;;-143.84;45.24;44995.75;5110693;28;20447;-57
2023/10/05 07:31:28;;;;;;;2.50;1.30;;;;;;;-143.84;45.91;45045.25;5110632;28;20939;-62
2023/10/05 07:33:55;;;;;;;1.10;0.93;;;;;;;-143.84;46.80;45030.03;5110515;28;20488;-62
2023/10/05 07:36:22;;;;;;;2.90;1.77;;;;;;;-143.84;45.87;45005.28;5110232;27;20434;-62
2023/10/05 07:38:49;;;;;;;1.53;1.40;;;;;;;-143.84;44.13;45003.38;5110476;28;20469;-62
2023/10/05 07:41:16;;;;;;;1.03;0.93;;;;;;;-143.84;44.90;44982.41;5110148;27;21148;-62
2023/10/05 07:43:45;;;;;;;1.00;0.83;;;;;;;-143.84;42.31;44997.66;5109598;28;20451;-62
2023/10/05 07:46:12;;;;;;;1.20;0.93;;;;;;;-143.84;41.55;44995.75;5109473;28;20439;-62
2023/10/05 07:48:41;;;;;;;1.20;0.97;;;;;;;-143.84;42.46;44986.22;5109640;28;20519;-63
2023/10/05 07:51:08;;;;;;;1.73;0.90;;;;;;;-143.84;41.54;44982.41;5110200;28;20439;-63
2023/10/05 07:53:35;;;;;;;1.50;1.03;;;;;;;-143.84;40.17;44990.03;5110142;28;20435;-62
2023/10/05 07:56:02;;;;;;;1.93;1.00;;;;;;;-143.84;40.37;44967.19;5109880;28;20548;-63
2023/10/05 07:58:30;;;;;;;1.20;0.90;;;;;;;-143.84;39.57;44999.56;5109887;28;20447;-62
2023/10/05 08:00:59;;;;;;;0.93;0.77;;;;;;;-143.84;39.63;44971.00;5110140;28;20470;-62
2023/10/05 08:03:26;;;;;;;1.20;0.70;;;;;;;-143.84;39.21;44972.91;5109429;28;20508;-63
2023/10/05 08:05:54;;;;;;;1.97;1.10;;;;;;;-143.84;39.67;44971.00;5109408;28;20446;-62
2023/10/05 08:08:21;;;;;;;1.20;0.73;;;;;;;-143.84;39.74;44982.41;5109011;28;20446;-62
2023/10/05 08:10:49;;;;;;;1.53;1.07;;;;;;;-143.84;40.13;44993.84;5109362;28;20495;-62
2023/10/05 08:13:16;;;;;;;3.73;1.43;;;;;;;-143.84;39.46;44995.75;5109488;28;20443;-62
2023/10/05 08:15:44;;;;;;;1.63;0.90;;;;;;;-143.84;39.95;45022.41;5109080;28;20562;-63
2023/10/05 08:18:12;;;;;;;2.40;1.00;;;;;;;-143.84;39.97;44991.94;5109015;28;20450;-62
2023/10/05 08:20:40;;;;;;;1.00;0.90;;;;;;;-143.84;40.40;44965.28;5108951;28;20443;-63
2023/10/05 08:23:08;;;;;;;1.83;1.13;;;;;;;-143.84;39.83;44988.13;5109246;28;20427;-63
2023/10/05 08:25:35;;;;;;;1.87;1.30;;;;;;;-143.84;40.49;44984.31;5109484;28;20510;-63
2023/10/05 08:28:04;;;;;;;0.90;0.50;;;;;;;-143.84;39.87;44991.94;5109500;28;20439;-62
2023/10/05 08:30:37;;;;;;;0.90;0.60;;;;;;;-143.84;40.25;44980.53;5109253;28;20470;-62
2023/10/05 08:33:11;;;;;;;2.43;1.43;;;;;;;-143.84;40.07;44990.03;5109371;28;20443;-62
2023/10/05 08:35:41;;;;;;;1.73;1.63;;;;;;;-143.84;39.92;44978.63;5109377;28;21002;-62
2023/10/05 08:38:15;;;;;;;1.00;0.73;;;;;;;-143.84;40.31;44986.22;5109149;28;20439;-62
2023/10/05 08:40:45;;;;;;;2.43;1.70;;;;;;;-143.84;41.02;44971.00;5109230;28;20445;-62
2023/10/05 08:43:16;;;;;;;1.50;0.83;;;;;;;-143.84;40.78;44980.53;5109333;28;20538;-63
2023/10/05 08:45:47;;;;;;;1.10;1.00;;;;;;;-143.84;40.26;44976.72;5109340;28;20451;-62
2023/10/05 08:48:28;;;;;;;2.27;1.10;;;;;;;-143.84;39.86;44978.63;5109432;28;20483;-62
2023/10/05 08:51:04;;;;;;;3.47;1.30;;;;;;;-143.84;40.34;44969.09;5109306;28;20466;-62
2023/10/05 08:53:32;;;;;;;2.17;1.80;;;;;;;-143.84;40.33;44988.13;5108817;28;20447;-62
2023/10/05 08:56:00;;;;;;;1.40;0.70;;;;;;;-143.84;41.31;44980.53;5109084;28;20470;-62
2023/10/05 08:58:28;;;;;;;1.67;1.03;;;;;;;-143.84;40.59;44955.75;5109282;28;20794;-62
2023/10/05 09:00:59;;;;;;;1.20;1.10;;;;;;;-143.84;40.71;44980.53;5109058;28;20866;-62
2023/10/05 09:03:35;;;;;;;0.90;0.60;;;;;;;-143.84;40.84;44988.13;5108983;28;20451;-62
2023/10/05 09:06:20;;;;;;;2.30;1.40;;;;;;;-143.84;40.60;44955.75;5109165;28;20443;-62
2023/10/05 09:09:01;;;;;;;2.20;0.83;;;;;;;-143.84;40.14;44986.22;5109018;28;20478;-62
2023/10/05 09:11:31;;;;;;;2.90;1.57;;;;;;;-143.84;40.53;44965.28;5108992;28;20525;-62
2023/10/05 09:14:12;;;;;;;2.80;0.80;;;;;;;-143.84;40.60;44974.81;5108867;28;20439;-62
2023/10/05 09:16:43;;;;;;;1.10;0.60;;;;;;;-143.84;41.50;44982.41;5109081;28;20535;-62
2023/10/05 09:19:15;;;;;;;1.20;0.90;;;;;;;-143.84;41.82;44984.31;5108980;28;20431;-62
2023/10/05 09:21:50;;;;;;;1.60;1.20;;;;;;;-143.84;41.55;44959.56;5108909;28;20823;-62
2023/10/05 09:24:21;;;;;;;1.10;1.00;;;;;;;-143.84;41.65;44967.19;5108897;28;20474;-62
2023/10/05 09:26:53;;;;;;;1.10;1.00;;;;;;;-143.84;41.99;44967.19;5108943;28;20439;-62
2023/10/05 09:29:24;;;;;;;1.30;0.63;;;;;;;-143.84;42.04;44953.88;5108885;28;20450;-62
2023/10/05 09:31:54;;;;;;;7.17;1.10;;;;;;;-143.84;42.79;44976.72;5108400;28;20485;-62
2023/10/05 09:34:39;;;;;;;1.20;0.87;;;;;;;-143.84;43.10;44967.19;5109129;28;20439;-63
2023/10/05 09:37:08;;;;;;;1.00;0.60;;;;;;;-143.84;43.36;44972.91;5108946;28;20847;-62
2023/10/05 09:39:43;;;;;;;0.90;0.70;;;;;;;-143.84;42.71;44976.72;5108440;28;20474;-62
2023/10/05 09:42:16;;;;;;;1.07;0.70;;;;;;;-143.84;42.93;44969.09;5108683;28;20975;-62
2023/10/05 09:44:51;;;;;;;1.00;0.60;;;;;;;-143.84;43.02;44971.00;5108445;28;20848;-62
2023/10/05 09:47:24;;;;;;;1.77;1.10;;;;;;;-143.84;43.24;44988.13;5107976;28;20523;-62
2023/10/05 09:49:58;;;;;;;1.00;0.80;;;;;;;-143.84;42.88;44959.56;5108473;28;20836;-62
2023/10/05 09:52:31;;;;;;;1.20;0.90;;;;;;;-143.84;42.41;44972.91;5108428;28;20435;-62
2023/10/05 09:54:59;;;;;;;1.10;0.93;;;;;;;-143.84;42.19;44982.41;5108533;28;20510;-62
2023/10/05 09:57:26;;;;;;;1.73;1.10;;;;;;;-143.84;42.73;44957.66;5108607;28;20446;-62
2023/10/05 10:00:09;;;;;;;0.90;0.60;;;;;;;-143.84;42.12;44944.34;5108420;28;20447;-63
2023/10/05 10:02:38;;;;;;;1.93;1.00;;;;;;;-143.84;41.88;44978.63;5108208;28;20443;-57
2023/10/05 10:05:29;;;;;;;1.00;0.77;;;;;;;-143.84;42.30;44961.47;5111036;28;20443;-57
2023/10/05 10:08:07;;;;;;;1.10;0.70;;;;;;;-143.84;41.83;44967.19;5111970;28;20542;-57
2023/10/05 10:10:36;;;;;;;1.77;0.93;;;;;;;-143.84;41.85;44965.28;5111881;28;21147;-60
2023/10/05 10:13:11;;;;;;;1.60;1.00;;;;;;;-143.84;42.14;44988.13;5111529;28;20445;-61
2023/10/05 10:15:39;;;;;;;1.10;0.80;;;;;;;-143.84;42.29;45001.47;5111373;28;20569;-60
2023/10/05 10:18:14;;;;;;;1.50;1.40;;;;;;;-143.84;41.61;44967.19;5111988;28;20443;-60
2023/10/05 10:20:45;;;;;;;1.70;1.23;;;;;;;-143.84;41.68;44986.22;5111881;28;20462;-60
2023/10/05 10:23:19;;;;;;;1.80;1.17;;;;;;;-143.84;42.02;44959.56;5111867;28;20446;-61
2023/10/05 10:25:50;;;;;;;1.20;0.70;;;;;;;-143.84;42.38;44944.34;5111891;28;20446;-60
2023/10/05 10:28:24;;;;;;;0.90;0.60;;;;;;;-143.84;42.34;44976.72;5112041;28;21182;-60
2023/10/05 10:31:17;;;;;;;0.90;0.60;;;;;;;-143.84;43.01;44976.72;5111323;28;20497;-60
2023/10/05 10:33:50;;;;;;;1.10;0.77;;;;;;;-143.84;42.18;44986.22;5112028;28;20447;-60
2023/10/05 10:36:21;;;;;;;0.90;0.73;;;;;;;-143.84;43.16;44951.97;5111759;28;20483;-60
2023/10/05 10:38:51;;;;;;;1.67;1.20;;;;;;;-143.84;42.80;44967.19;5111858;28;20439;-60
2023/10/05 10:41:21;;;;;;;1.00;0.50;;;;;;;-143.84;42.56;44953.88;5110863;28;20918;-60
2023/10/05 10:43:54;;;;;;;1.60;1.10;;;;;;;-143.84;42.39;44953.88;5110718;28;20466;-60
2023/10/05 10:46:28;;;;;;;1.00;0.73;;;;;;;-143.84;42.14;45005.28;5110536;28;20455;-60
2023/10/05 10:48:58;;;;;;;1.60;1.37;;;;;;;-143.84;42.25;44976.72;5111219;28;20443;-60
2023/10/05 10:51:31;;;;;;;1.13;0.77;;;;;;;-143.84;41.59;44969.09;5110691;28;20439;-60
2023/10/05 10:54:08;;;;;;;0.90;0.70;;;;;;;-143.84;41.22;44972.91;5110891;28;20442;-60
2023/10/05 10:56:43;;;;;;;1.07;0.80;;;;;;;-143.84;41.24;44984.31;5111093;28;20482;-60
2023/10/05 10:59:14;;;;;;;1.43;0.90;;;;;;;-143.84;41.52;44946.25;5111106;28;20932;-60
2023/10/05 11:01:42;;;;;;;1.87;0.90;;;;;;;-143.84;41.59;44959.56;5111170;28;20439;-60
2023/10/05 11:07:05;;;;;;;1.03;0.93;;;;;;;-143.84;41.85;44965.28;5110748;28;20450;-58
2023/10/05 11:09:37;;;;;;;1.20;0.80;;;;;;;-143.84;41.73;44969.09;5111294;28;20442;-57
2023/10/05 11:12:11;;;;;;;1.03;0.90;;;;;;;-143.84;41.67;44969.09;5111288;28;20443;-60
2023/10/05 11:14:45;;;;;;;1.97;1.03;;;;;;;-143.84;41.96;44972.91;5110752;27;20520;-60
2023/10/05 11:17:26;;;;;;;2.33;0.70;;;;;;;-143.84;42.14;44959.56;5110212;28;20487;-60
2023/10/05 11:19:53;;;;;;;0.90;0.50;;;;;;;-143.84;42.11;44957.66;5110800;28;20442;-60
2023/10/05 11:22:24;;;;;;;1.20;0.70;;;;;;;-143.84;41.96;44972.91;5110747;28;20444;-60
2023/10/05 11:25:15;;;;;;;3.30;1.73;;;;;;;-143.84;42.50;44961.47;5110693;28;20466;-60
2023/10/05 11:27:48;;;;;;;1.00;0.73;;;;;;;-143.84;43.22;44972.91;5110628;28;20524;-60
2023/10/05 11:30:18;;;;;;;1.07;0.70;;;;;;;-143.84;43.26;44995.75;5110794;28;20454;-60
2023/10/05 11:32:47;;;;;;;3.27;1.43;;;;;;;-143.84;44.11;44991.94;5110835;28;20474;-60
2023/10/05 11:35:28;;;;;;;5.43;1.53;;;;;;;-143.84;44.19;44982.41;5110518;28;20523;-60
2023/10/05 11:37:59;;;;;;;1.17;0.50;;;;;;;-143.84;43.95;45007.19;5110602;28;20522;-60
2023/10/05 11:40:34;;;;;;;1.10;0.70;;;;;;;-143.84;44.14;44997.66;5110417;28;20530;-60
2023/10/05 11:43:07;;;;;;;1.40;0.83;;;;;;;-143.84;44.07;44999.56;5110411;28;20481;-60
2023/10/05 11:45:37;;;;;;;1.70;1.03;;;;;;;-143.84;44.35;44997.66;5110378;28;20530;-60
2023/10/05 11:48:11;;;;;;;1.43;1.30;;;;;;;-143.84;44.48;44980.53;5110448;28;20524;-60